sensor_id;sensor_type;location;lat;lon;timestamp;temperature;humidity
947;DHT22;460;48.734;9.152;2024-03-08T00:00:28;3.70;99.90
947;DHT22;460;48.734;9.152;2024-03-08T00:02:57;3.80;99.90
947;DHT22;460;48.734;9.152;2024-03-08T00:05:26;3.80;99.90
947;DHT22;460;48.734;9.152;2024-03-08T00:07:53;3.70;99.90
947;DHT22;460;48.734;9.152;2024-03-08T00:10:20;3.80;99.90
947;DHT22;460;48.734;9.152;2024-03-08T00:12:47;3.70;99.90
947;DHT22;460;48.734;9.152;2024-03-08T00:15:16;3.70;99.90
947;DHT22;460;48.734;9.152;2024-03-08T00:17:45;3.70;99.80
947;DHT22;460;48.734;9.152;2024-03-08T00:20:12;3.60;99.80
947;DHT22;460;48.734;9.152;2024-03-08T00:22:38;3.70;99.80
947;DHT22;460;48.734;9.152;2024-03-08T00:25:07;3.70;99.90
947;DHT22;460;48.734;9.152;2024-03-08T00:27:34;3.70;99.80
947;DHT22;460;48.734;9.152;2024-03-08T00:30:01;3.70;99.90
947;DHT22;460;48.734;9.152;2024-03-08T00:32:28;3.70;99.90
947;DHT22;460;48.734;9.152;2024-03-08T00:34:56;3.50;99.90
947;DHT22;460;48.734;9.152;2024-03-08T00:37:23;3.60;99.80
947;DHT22;460;48.734;9.152;2024-03-08T00:39:50;3.60;99.70
947;DHT22;460;48.734;9.152;2024-03-08T00:42:18;3.60;99.80
947;DHT22;460;48.734;9.152;2024-03-08T00:44:45;3.50;99.80
947;DHT22;460;48.734;9.152;2024-03-08T00:47:12;3.40;99.80
947;DHT22;460;48.734;9.152;2024-03-08T00:49:41;3.40;99.90
947;DHT22;460;48.734;9.152;2024-03-08T00:52:09;3.40;99.90
947;DHT22;460;48.734;9.152;2024-03-08T00:54:36;3.40;99.90
947;DHT22;460;48.734;9.152;2024-03-08T00:57:03;3.40;99.90
947;DHT22;460;48.734;9.152;2024-03-08T00:59:30;3.30;99.90
947;DHT22;460;48.734;9.152;2024-03-08T01:01:58;3.30;99.90
947;DHT22;460;48.734;9.152;2024-03-08T01:04:25;3.30;99.90
947;DHT22;460;48.734;9.152;2024-03-08T01:06:54;3.30;99.90
947;DHT22;460;48.734;9.152;2024-03-08T01:09:23;3.40;99.80
947;DHT22;460;48.734;9.152;2024-03-08T01:11:50;3.30;99.90
947;DHT22;460;48.734;9.152;2024-03-08T01:14:16;3.30;99.80
947;DHT22;460;48.734;9.152;2024-03-08T01:16:43;3.10;99.80
947;DHT22;460;48.734;9.152;2024-03-08T01:19:10;3.20;99.90
947;DHT22;460;48.734;9.152;2024-03-08T01:21:37;3.20;99.90
947;DHT22;460;48.734;9.152;2024-03-08T01:24:04;3.10;99.90
947;DHT22;460;48.734;9.152;2024-03-08T01:26:32;3.20;99.90
947;DHT22;460;48.734;9.152;2024-03-08T01:29:00;3.10;99.90
947;DHT22;460;48.734;9.152;2024-03-08T01:31:28;3.10;99.90
947;DHT22;460;48.734;9.152;2024-03-08T01:33:55;3.10;99.90
947;DHT22;460;48.734;9.152;2024-03-08T01:36:23;3.10;99.90
947;DHT22;460;48.734;9.152;2024-03-08T01:38:50;3.00;99.90
947;DHT22;460;48.734;9.152;2024-03-08T01:41:17;3.00;99.90
947;DHT22;460;48.734;9.152;2024-03-08T01:43:45;3.00;99.90
947;DHT22;460;48.734;9.152;2024-03-08T01:46:15;3.00;99.90
947;DHT22;460;48.734;9.152;2024-03-08T01:48:43;3.00;99.90
947;DHT22;460;48.734;9.152;2024-03-08T01:51:10;3.00;99.90
947;DHT22;460;48.734;9.152;2024-03-08T01:53:37;2.90;99.90
947;DHT22;460;48.734;9.152;2024-03-08T01:56:06;2.90;99.90
947;DHT22;460;48.734;9.152;2024-03-08T01:58:35;2.90;99.90
947;DHT22;460;48.734;9.152;2024-03-08T02:01:04;3.00;99.90
947;DHT22;460;48.734;9.152;2024-03-08T02:03:31;2.90;99.90
947;DHT22;460;48.734;9.152;2024-03-08T02:05:58;2.90;99.90
947;DHT22;460;48.734;9.152;2024-03-08T02:08:25;2.90;99.90
947;DHT22;460;48.734;9.152;2024-03-08T02:10:53;2.90;99.90
947;DHT22;460;48.734;9.152;2024-03-08T02:13:21;2.80;99.90
947;DHT22;460;48.734;9.152;2024-03-08T02:15:53;2.80;99.90
947;DHT22;460;48.734;9.152;2024-03-08T02:18:23;2.70;99.90
947;DHT22;460;48.734;9.152;2024-03-08T02:20:51;2.70;99.90
947;DHT22;460;48.734;9.152;2024-03-08T02:23:19;2.70;99.90
947;DHT22;460;48.734;9.152;2024-03-08T02:25:46;2.70;99.90
947;DHT22;460;48.734;9.152;2024-03-08T02:28:13;2.80;99.90
947;DHT22;460;48.734;9.152;2024-03-08T02:30:40;2.70;99.90
947;DHT22;460;48.734;9.152;2024-03-08T02:33:08;2.70;99.50
947;DHT22;460;48.734;9.152;2024-03-08T02:35:36;2.70;99.70
947;DHT22;460;48.734;9.152;2024-03-08T02:38:05;2.60;99.60
947;DHT22;460;48.734;9.152;2024-03-08T02:40:32;2.60;99.70
947;DHT22;460;48.734;9.152;2024-03-08T02:42:59;2.60;99.80
947;DHT22;460;48.734;9.152;2024-03-08T02:45:27;2.60;99.70
947;DHT22;460;48.734;9.152;2024-03-08T02:47:56;2.50;99.70
947;DHT22;460;48.734;9.152;2024-03-08T02:50:23;2.50;99.80
947;DHT22;460;48.734;9.152;2024-03-08T02:52:52;2.50;99.90
947;DHT22;460;48.734;9.152;2024-03-08T02:55:21;2.50;99.70
947;DHT22;460;48.734;9.152;2024-03-08T02:57:47;2.60;99.80
947;DHT22;460;48.734;9.152;2024-03-08T03:00:15;2.50;99.60
947;DHT22;460;48.734;9.152;2024-03-08T03:02:42;2.50;99.60
947;DHT22;460;48.734;9.152;2024-03-08T03:05:10;2.40;99.70
947;DHT22;460;48.734;9.152;2024-03-08T03:07:37;2.40;99.80
947;DHT22;460;48.734;9.152;2024-03-08T03:10:05;2.50;99.70
947;DHT22;460;48.734;9.152;2024-03-08T03:12:34;2.50;99.80
947;DHT22;460;48.734;9.152;2024-03-08T03:15:00;2.40;99.70
947;DHT22;460;48.734;9.152;2024-03-08T03:17:27;2.30;99.70
947;DHT22;460;48.734;9.152;2024-03-08T03:19:55;2.40;99.90
947;DHT22;460;48.734;9.152;2024-03-08T03:22:22;2.30;99.80
947;DHT22;460;48.734;9.152;2024-03-08T03:24:49;2.30;99.90
947;DHT22;460;48.734;9.152;2024-03-08T03:27:17;2.30;99.90
947;DHT22;460;48.734;9.152;2024-03-08T03:29:48;2.30;99.90
947;DHT22;460;48.734;9.152;2024-03-08T03:32:17;2.20;99.90
947;DHT22;460;48.734;9.152;2024-03-08T03:34:44;2.30;99.90
947;DHT22;460;48.734;9.152;2024-03-08T03:37:12;2.20;99.90
947;DHT22;460;48.734;9.152;2024-03-08T03:39:41;2.20;99.90
947;DHT22;460;48.734;9.152;2024-03-08T03:42:16;2.30;99.90
947;DHT22;460;48.734;9.152;2024-03-08T03:44:44;2.20;99.90
947;DHT22;460;48.734;9.152;2024-03-08T03:47:13;2.10;99.90
947;DHT22;460;48.734;9.152;2024-03-08T03:49:41;2.10;99.90
947;DHT22;460;48.734;9.152;2024-03-08T03:52:09;2.10;99.90
947;DHT22;460;48.734;9.152;2024-03-08T03:54:38;2.10;99.90
947;DHT22;460;48.734;9.152;2024-03-08T03:57:05;2.20;99.90
947;DHT22;460;48.734;9.152;2024-03-08T03:59:35;2.20;99.90
947;DHT22;460;48.734;9.152;2024-03-08T04:02:02;2.10;99.90
947;DHT22;460;48.734;9.152;2024-03-08T04:04:31;2.10;99.90
947;DHT22;460;48.734;9.152;2024-03-08T04:06:58;2.10;99.90
947;DHT22;460;48.734;9.152;2024-03-08T04:09:25;2.00;99.90
947;DHT22;460;48.734;9.152;2024-03-08T04:11:51;2.10;99.90
947;DHT22;460;48.734;9.152;2024-03-08T04:14:21;2.00;99.90
947;DHT22;460;48.734;9.152;2024-03-08T04:16:48;2.00;99.90
947;DHT22;460;48.734;9.152;2024-03-08T04:19:15;2.00;99.90
947;DHT22;460;48.734;9.152;2024-03-08T04:21:43;2.00;99.90
947;DHT22;460;48.734;9.152;2024-03-08T04:24:10;1.90;99.90
947;DHT22;460;48.734;9.152;2024-03-08T04:26:36;1.90;99.90
947;DHT22;460;48.734;9.152;2024-03-08T04:29:03;1.90;99.90
947;DHT22;460;48.734;9.152;2024-03-08T04:31:30;2.00;99.90
947;DHT22;460;48.734;9.152;2024-03-08T04:33:57;2.10;99.90
947;DHT22;460;48.734;9.152;2024-03-08T04:36:24;2.00;99.90
947;DHT22;460;48.734;9.152;2024-03-08T04:38:53;1.90;99.90
947;DHT22;460;48.734;9.152;2024-03-08T04:41:20;1.90;99.90
947;DHT22;460;48.734;9.152;2024-03-08T04:43:48;1.90;99.90
947;DHT22;460;48.734;9.152;2024-03-08T04:46:15;2.00;99.90
947;DHT22;460;48.734;9.152;2024-03-08T04:48:42;1.90;99.90
947;DHT22;460;48.734;9.152;2024-03-08T04:51:09;1.80;99.90
947;DHT22;460;48.734;9.152;2024-03-08T04:53:36;1.60;99.90
947;DHT22;460;48.734;9.152;2024-03-08T04:56:05;1.80;99.90
947;DHT22;460;48.734;9.152;2024-03-08T04:58:32;1.80;99.90
947;DHT22;460;48.734;9.152;2024-03-08T05:01:00;1.80;99.90
947;DHT22;460;48.734;9.152;2024-03-08T05:03:27;1.90;99.90
947;DHT22;460;48.734;9.152;2024-03-08T05:05:54;1.80;99.90
947;DHT22;460;48.734;9.152;2024-03-08T05:08:21;1.80;99.90
947;DHT22;460;48.734;9.152;2024-03-08T05:10:48;1.80;99.90
947;DHT22;460;48.734;9.152;2024-03-08T05:13:16;1.80;99.90
947;DHT22;460;48.734;9.152;2024-03-08T05:15:47;1.80;99.90
947;DHT22;460;48.734;9.152;2024-03-08T05:18:15;1.80;99.90
947;DHT22;460;48.734;9.152;2024-03-08T05:20:41;1.70;99.90
947;DHT22;460;48.734;9.152;2024-03-08T05:23:08;1.80;99.90
947;DHT22;460;48.734;9.152;2024-03-08T05:25:35;1.70;99.90
947;DHT22;460;48.734;9.152;2024-03-08T05:28:02;1.70;99.90
947;DHT22;460;48.734;9.152;2024-03-08T05:30:31;1.70;99.90
947;DHT22;460;48.734;9.152;2024-03-08T05:32:58;1.80;99.90
947;DHT22;460;48.734;9.152;2024-03-08T05:35:25;1.70;99.90
947;DHT22;460;48.734;9.152;2024-03-08T05:37:52;1.70;99.90
947;DHT22;460;48.734;9.152;2024-03-08T05:40:19;1.60;99.90
947;DHT22;460;48.734;9.152;2024-03-08T05:42:45;1.60;99.90
947;DHT22;460;48.734;9.152;2024-03-08T05:45:12;1.70;99.90
947;DHT22;460;48.734;9.152;2024-03-08T05:47:42;1.70;99.90
947;DHT22;460;48.734;9.152;2024-03-08T05:50:09;1.70;99.90
947;DHT22;460;48.734;9.152;2024-03-08T05:52:36;1.70;99.90
947;DHT22;460;48.734;9.152;2024-03-08T05:55:04;1.70;99.90
947;DHT22;460;48.734;9.152;2024-03-08T05:57:33;1.60;99.90
947;DHT22;460;48.734;9.152;2024-03-08T05:59:59;1.70;99.90
947;DHT22;460;48.734;9.152;2024-03-08T06:02:26;1.70;99.90
947;DHT22;460;48.734;9.152;2024-03-08T06:04:57;1.60;99.90
947;DHT22;460;48.734;9.152;2024-03-08T06:07:24;1.70;99.90
947;DHT22;460;48.734;9.152;2024-03-08T06:09:51;1.80;99.90
947;DHT22;460;48.734;9.152;2024-03-08T06:12:17;1.70;99.90
947;DHT22;460;48.734;9.152;2024-03-08T06:14:45;1.70;99.90
947;DHT22;460;48.734;9.152;2024-03-08T06:17:11;1.70;99.90
947;DHT22;460;48.734;9.152;2024-03-08T06:19:38;1.70;99.90
947;DHT22;460;48.734;9.152;2024-03-08T06:22:06;1.70;99.90
947;DHT22;460;48.734;9.152;2024-03-08T06:24:35;1.80;99.90
947;DHT22;460;48.734;9.152;2024-03-08T06:27:04;2.40;99.90
947;DHT22;460;48.734;9.152;2024-03-08T06:29:30;1.80;99.90
947;DHT22;460;48.734;9.152;2024-03-08T06:31:57;1.90;99.90
947;DHT22;460;48.734;9.152;2024-03-08T06:34:25;1.90;99.90
947;DHT22;460;48.734;9.152;2024-03-08T06:36:52;1.90;99.90
947;DHT22;460;48.734;9.152;2024-03-08T06:39:27;2.00;99.90
947;DHT22;460;48.734;9.152;2024-03-08T06:41:57;2.00;99.90
947;DHT22;460;48.734;9.152;2024-03-08T06:44:23;2.20;99.90
947;DHT22;460;48.734;9.152;2024-03-08T06:46:51;2.00;99.90
947;DHT22;460;48.734;9.152;2024-03-08T06:49:18;2.10;99.90
947;DHT22;460;48.734;9.152;2024-03-08T06:51:45;2.10;99.90
947;DHT22;460;48.734;9.152;2024-03-08T06:54:11;2.30;99.90
947;DHT22;460;48.734;9.152;2024-03-08T06:56:40;2.20;99.90
947;DHT22;460;48.734;9.152;2024-03-08T06:59:07;2.20;99.90
947;DHT22;460;48.734;9.152;2024-03-08T07:01:36;2.30;99.90
947;DHT22;460;48.734;9.152;2024-03-08T07:04:04;2.40;99.90
947;DHT22;460;48.734;9.152;2024-03-08T07:06:32;2.20;99.90
947;DHT22;460;48.734;9.152;2024-03-08T07:08:59;2.30;99.90
947;DHT22;460;48.734;9.152;2024-03-08T07:11:27;2.30;99.90
947;DHT22;460;48.734;9.152;2024-03-08T07:14:14;2.40;99.90
947;DHT22;460;48.734;9.152;2024-03-08T07:17:32;2.50;99.90
947;DHT22;460;48.734;9.152;2024-03-08T07:20:48;2.60;99.90
947;DHT22;460;48.734;9.152;2024-03-08T07:23:15;3.10;99.90
947;DHT22;460;48.734;9.152;2024-03-08T07:26:03;2.80;99.90
947;DHT22;460;48.734;9.152;2024-03-08T07:28:29;2.80;99.90
947;DHT22;460;48.734;9.152;2024-03-08T07:30:58;2.80;99.90
947;DHT22;460;48.734;9.152;2024-03-08T07:33:42;2.80;99.90
947;DHT22;460;48.734;9.152;2024-03-08T07:36:09;2.90;99.90
947;DHT22;460;48.734;9.152;2024-03-08T07:38:36;2.90;99.90
947;DHT22;460;48.734;9.152;2024-03-08T07:41:03;2.70;99.90
947;DHT22;460;48.734;9.152;2024-03-08T07:43:30;3.00;99.90
947;DHT22;460;48.734;9.152;2024-03-08T07:46:02;3.00;99.90
947;DHT22;460;48.734;9.152;2024-03-08T07:48:34;3.20;99.90
947;DHT22;460;48.734;9.152;2024-03-08T07:51:02;3.20;99.80
947;DHT22;460;48.734;9.152;2024-03-08T07:53:29;3.20;99.90
947;DHT22;460;48.734;9.152;2024-03-08T07:55:56;3.20;99.80
947;DHT22;460;48.734;9.152;2024-03-08T07:58:23;3.20;99.90
947;DHT22;460;48.734;9.152;2024-03-08T08:00:49;3.30;99.90
947;DHT22;460;48.734;9.152;2024-03-08T08:03:20;3.40;99.90
947;DHT22;460;48.734;9.152;2024-03-08T08:05:47;3.60;99.90
947;DHT22;460;48.734;9.152;2024-03-08T08:08:14;3.60;99.50
947;DHT22;460;48.734;9.152;2024-03-08T08:10:41;3.50;99.40
947;DHT22;460;48.734;9.152;2024-03-08T08:13:08;3.70;99.50
947;DHT22;460;48.734;9.152;2024-03-08T08:15:35;3.60;99.30
947;DHT22;460;48.734;9.152;2024-03-08T08:18:02;3.60;99.30
947;DHT22;460;48.734;9.152;2024-03-08T08:20:32;3.70;99.00
947;DHT22;460;48.734;9.152;2024-03-08T08:22:59;3.60;98.30
947;DHT22;460;48.734;9.152;2024-03-08T08:25:25;3.60;98.60
947;DHT22;460;48.734;9.152;2024-03-08T08:27:54;3.60;98.80
947;DHT22;460;48.734;9.152;2024-03-08T08:30:54;3.60;99.30
947;DHT22;460;48.734;9.152;2024-03-08T08:33:21;3.70;99.10
947;DHT22;460;48.734;9.152;2024-03-08T08:35:49;3.80;98.70
947;DHT22;460;48.734;9.152;2024-03-08T08:38:19;3.80;98.60
947;DHT22;460;48.734;9.152;2024-03-08T08:40:46;3.80;98.70
947;DHT22;460;48.734;9.152;2024-03-08T08:43:13;3.90;98.70
947;DHT22;460;48.734;9.152;2024-03-08T08:45:40;4.00;98.50
947;DHT22;460;48.734;9.152;2024-03-08T08:48:08;3.90;98.10
947;DHT22;460;48.734;9.152;2024-03-08T08:50:35;4.00;98.10
947;DHT22;460;48.734;9.152;2024-03-08T08:53:04;3.90;98.20
947;DHT22;460;48.734;9.152;2024-03-08T08:55:32;4.10;98.20
947;DHT22;460;48.734;9.152;2024-03-08T08:58:01;4.00;98.30
947;DHT22;460;48.734;9.152;2024-03-08T09:00:28;4.00;98.40
947;DHT22;460;48.734;9.152;2024-03-08T09:02:56;4.00;98.40
947;DHT22;460;48.734;9.152;2024-03-08T09:05:24;4.10;98.10
947;DHT22;460;48.734;9.152;2024-03-08T09:07:51;4.00;98.00
947;DHT22;460;48.734;9.152;2024-03-08T09:10:21;4.00;98.10
947;DHT22;460;48.734;9.152;2024-03-08T09:12:48;4.10;98.00
947;DHT22;460;48.734;9.152;2024-03-08T09:15:21;4.20;97.90
947;DHT22;460;48.734;9.152;2024-03-08T09:17:48;4.20;97.70
947;DHT22;460;48.734;9.152;2024-03-08T09:20:16;4.20;97.70
947;DHT22;460;48.734;9.152;2024-03-08T09:22:44;4.20;97.50
947;DHT22;460;48.734;9.152;2024-03-08T09:25:13;4.00;99.90
947;DHT22;460;48.734;9.152;2024-03-08T09:27:43;4.00;97.90
947;DHT22;460;48.734;9.152;2024-03-08T09:30:12;4.10;98.30
947;DHT22;460;48.734;9.152;2024-03-08T09:32:41;4.10;98.30
947;DHT22;460;48.734;9.152;2024-03-08T09:35:09;4.30;97.90
947;DHT22;460;48.734;9.152;2024-03-08T09:37:36;4.40;97.70
947;DHT22;460;48.734;9.152;2024-03-08T09:40:04;4.30;97.70
947;DHT22;460;48.734;9.152;2024-03-08T09:42:34;4.30;97.50
947;DHT22;460;48.734;9.152;2024-03-08T09:45:08;4.30;97.50
947;DHT22;460;48.734;9.152;2024-03-08T09:47:37;4.40;97.80
947;DHT22;460;48.734;9.152;2024-03-08T09:50:06;4.50;97.70
947;DHT22;460;48.734;9.152;2024-03-08T09:52:35;4.40;97.80
947;DHT22;460;48.734;9.152;2024-03-08T09:55:04;4.50;97.80
947;DHT22;460;48.734;9.152;2024-03-08T09:57:32;4.60;97.80
947;DHT22;460;48.734;9.152;2024-03-08T09:59:59;4.60;97.90
947;DHT22;460;48.734;9.152;2024-03-08T10:02:27;4.60;97.90
947;DHT22;460;48.734;9.152;2024-03-08T10:04:54;4.60;98.10
947;DHT22;460;48.734;9.152;2024-03-08T10:07:21;4.80;97.70
947;DHT22;460;48.734;9.152;2024-03-08T10:09:48;4.90;97.50
947;DHT22;460;48.734;9.152;2024-03-08T10:12:16;4.80;97.50
947;DHT22;460;48.734;9.152;2024-03-08T10:14:45;5.00;97.60
947;DHT22;460;48.734;9.152;2024-03-08T10:17:12;5.00;97.50
947;DHT22;460;48.734;9.152;2024-03-08T10:19:49;5.00;97.40
947;DHT22;460;48.734;9.152;2024-03-08T10:22:17;5.00;97.40
947;DHT22;460;48.734;9.152;2024-03-08T10:24:45;5.10;96.80
947;DHT22;460;48.734;9.152;2024-03-08T10:27:12;5.10;96.70
947;DHT22;460;48.734;9.152;2024-03-08T10:29:39;5.10;96.70
947;DHT22;460;48.734;9.152;2024-03-08T10:32:09;5.10;96.90
947;DHT22;460;48.734;9.152;2024-03-08T10:34:37;5.00;98.00
947;DHT22;460;48.734;9.152;2024-03-08T10:37:07;5.20;96.80
947;DHT22;460;48.734;9.152;2024-03-08T10:39:36;5.30;96.50
947;DHT22;460;48.734;9.152;2024-03-08T10:42:05;5.30;96.40
947;DHT22;460;48.734;9.152;2024-03-08T10:44:49;5.30;96.60
947;DHT22;460;48.734;9.152;2024-03-08T10:47:26;5.40;96.40
947;DHT22;460;48.734;9.152;2024-03-08T10:50:02;5.40;96.40
947;DHT22;460;48.734;9.152;2024-03-08T10:52:34;5.50;96.50
947;DHT22;460;48.734;9.152;2024-03-08T10:55:02;5.60;96.30
947;DHT22;460;48.734;9.152;2024-03-08T10:57:30;5.70;96.00
947;DHT22;460;48.734;9.152;2024-03-08T10:59:58;5.60;96.20
947;DHT22;460;48.734;9.152;2024-03-08T11:02:25;5.80;96.40
947;DHT22;460;48.734;9.152;2024-03-08T11:04:53;5.80;96.10
947;DHT22;460;48.734;9.152;2024-03-08T11:07:25;5.90;95.80
947;DHT22;460;48.734;9.152;2024-03-08T11:09:56;6.10;95.50
947;DHT22;460;48.734;9.152;2024-03-08T11:12:24;6.00;95.70
947;DHT22;460;48.734;9.152;2024-03-08T11:15:17;6.20;95.50
947;DHT22;460;48.734;9.152;2024-03-08T11:17:48;6.10;95.30
947;DHT22;460;48.734;9.152;2024-03-08T11:20:16;6.20;95.90
947;DHT22;460;48.734;9.152;2024-03-08T11:22:50;6.20;95.80
947;DHT22;460;48.734;9.152;2024-03-08T11:25:36;6.60;95.30
947;DHT22;460;48.734;9.152;2024-03-08T11:28:11;6.60;94.80
947;DHT22;460;48.734;9.152;2024-03-08T11:30:44;6.40;94.60
947;DHT22;460;48.734;9.152;2024-03-08T11:33:12;6.70;94.90
947;DHT22;460;48.734;9.152;2024-03-08T11:35:40;6.60;95.10
947;DHT22;460;48.734;9.152;2024-03-08T11:38:11;6.70;95.20
947;DHT22;460;48.734;9.152;2024-03-08T11:40:40;6.90;94.60
947;DHT22;460;48.734;9.152;2024-03-08T11:43:07;6.80;94.40
947;DHT22;460;48.734;9.152;2024-03-08T11:45:36;6.80;94.40
947;DHT22;460;48.734;9.152;2024-03-08T11:48:06;6.90;94.40
947;DHT22;460;48.734;9.152;2024-03-08T11:50:38;6.90;94.60
947;DHT22;460;48.734;9.152;2024-03-08T11:53:08;6.90;96.20
947;DHT22;460;48.734;9.152;2024-03-08T11:55:39;7.10;94.80
947;DHT22;460;48.734;9.152;2024-03-08T11:58:12;7.20;94.50
947;DHT22;460;48.734;9.152;2024-03-08T12:00:42;7.50;95.70
947;DHT22;460;48.734;9.152;2024-03-08T12:03:10;7.40;94.40
947;DHT22;460;48.734;9.152;2024-03-08T12:05:38;7.30;94.20
947;DHT22;460;48.734;9.152;2024-03-08T12:08:05;7.30;94.80
947;DHT22;460;48.734;9.152;2024-03-08T12:10:42;7.50;94.50
947;DHT22;460;48.734;9.152;2024-03-08T12:13:30;7.60;94.50
947;DHT22;460;48.734;9.152;2024-03-08T12:16:06;7.50;94.30
947;DHT22;460;48.734;9.152;2024-03-08T12:18:35;7.50;93.90
947;DHT22;460;48.734;9.152;2024-03-08T12:21:11;7.50;95.00
947;DHT22;460;48.734;9.152;2024-03-08T12:23:39;7.40;95.60
947;DHT22;460;48.734;9.152;2024-03-08T12:26:12;7.40;94.00
947;DHT22;460;48.734;9.152;2024-03-08T12:28:39;7.70;93.60
947;DHT22;460;48.734;9.152;2024-03-08T12:31:07;7.60;93.80
947;DHT22;460;48.734;9.152;2024-03-08T12:33:36;7.50;93.70
947;DHT22;460;48.734;9.152;2024-03-08T12:36:03;7.40;93.70
947;DHT22;460;48.734;9.152;2024-03-08T12:38:35;7.30;93.90
947;DHT22;460;48.734;9.152;2024-03-08T12:41:06;7.30;94.30
947;DHT22;460;48.734;9.152;2024-03-08T12:43:38;7.30;94.70
947;DHT22;460;48.734;9.152;2024-03-08T12:46:05;7.30;94.20
947;DHT22;460;48.734;9.152;2024-03-08T12:48:34;6.40;97.50
947;DHT22;460;48.734;9.152;2024-03-08T12:51:02;7.10;94.40
947;DHT22;460;48.734;9.152;2024-03-08T12:53:31;7.30;94.40
947;DHT22;460;48.734;9.152;2024-03-08T12:55:58;7.40;96.40
947;DHT22;460;48.734;9.152;2024-03-08T12:58:37;7.60;94.30
947;DHT22;460;48.734;9.152;2024-03-08T13:01:08;7.50;94.30
947;DHT22;460;48.734;9.152;2024-03-08T13:03:38;7.70;94.40
947;DHT22;460;48.734;9.152;2024-03-08T13:06:08;7.60;94.00
947;DHT22;460;48.734;9.152;2024-03-08T13:08:37;7.50;94.50
947;DHT22;460;48.734;9.152;2024-03-08T13:11:04;7.70;94.60
947;DHT22;460;48.734;9.152;2024-03-08T13:13:36;7.50;94.00
947;DHT22;460;48.734;9.152;2024-03-08T13:16:11;7.70;94.10
947;DHT22;460;48.734;9.152;2024-03-08T13:18:40;7.70;94.40
947;DHT22;460;48.734;9.152;2024-03-08T13:21:08;7.80;94.40
947;DHT22;460;48.734;9.152;2024-03-08T13:23:40;7.50;96.80
947;DHT22;460;48.734;9.152;2024-03-08T13:26:11;7.70;94.10
947;DHT22;460;48.734;9.152;2024-03-08T13:28:42;7.80;93.90
947;DHT22;460;48.734;9.152;2024-03-08T13:31:08;7.90;95.80
947;DHT22;460;48.734;9.152;2024-03-08T13:33:36;7.80;93.40
947;DHT22;460;48.734;9.152;2024-03-08T13:36:05;7.70;93.60
947;DHT22;460;48.734;9.152;2024-03-08T13:38:43;7.70;93.80
947;DHT22;460;48.734;9.152;2024-03-08T13:41:16;7.70;93.60
947;DHT22;460;48.734;9.152;2024-03-08T13:43:56;7.80;93.40
947;DHT22;460;48.734;9.152;2024-03-08T13:46:27;7.80;93.10
947;DHT22;460;48.734;9.152;2024-03-08T13:48:54;7.90;93.20
947;DHT22;460;48.734;9.152;2024-03-08T13:51:24;8.00;93.00
947;DHT22;460;48.734;9.152;2024-03-08T13:53:51;7.80;95.70
947;DHT22;460;48.734;9.152;2024-03-08T13:56:20;8.10;92.30
947;DHT22;460;48.734;9.152;2024-03-08T13:58:47;8.10;92.50
947;DHT22;460;48.734;9.152;2024-03-08T14:01:18;8.00;92.50
947;DHT22;460;48.734;9.152;2024-03-08T14:03:49;8.00;92.90
947;DHT22;460;48.734;9.152;2024-03-08T14:06:16;8.30;93.40
947;DHT22;460;48.734;9.152;2024-03-08T14:08:45;8.30;95.90
947;DHT22;460;48.734;9.152;2024-03-08T14:11:12;8.20;92.50
947;DHT22;460;48.734;9.152;2024-03-08T14:13:47;8.10;92.60
947;DHT22;460;48.734;9.152;2024-03-08T14:16:19;8.30;92.80
947;DHT22;460;48.734;9.152;2024-03-08T14:18:46;8.20;96.70
947;DHT22;460;48.734;9.152;2024-03-08T14:21:13;8.20;92.90
947;DHT22;460;48.734;9.152;2024-03-08T14:23:42;8.10;95.00
947;DHT22;460;48.734;9.152;2024-03-08T14:26:17;8.30;92.60
947;DHT22;460;48.734;9.152;2024-03-08T14:28:46;8.40;92.80
947;DHT22;460;48.734;9.152;2024-03-08T14:31:20;8.80;92.80
947;DHT22;460;48.734;9.152;2024-03-08T14:33:54;9.40;91.50
947;DHT22;460;48.734;9.152;2024-03-08T14:36:41;9.40;91.50
947;DHT22;460;48.734;9.152;2024-03-08T14:39:29;9.10;97.50
947;DHT22;460;48.734;9.152;2024-03-08T14:42:01;9.60;92.20
947;DHT22;460;48.734;9.152;2024-03-08T14:44:29;9.40;91.20
947;DHT22;460;48.734;9.152;2024-03-08T14:46:57;9.40;92.20
947;DHT22;460;48.734;9.152;2024-03-08T14:49:24;9.40;91.40
947;DHT22;460;48.734;9.152;2024-03-08T14:51:54;9.40;92.20
947;DHT22;460;48.734;9.152;2024-03-08T14:54:23;9.40;91.60
947;DHT22;460;48.734;9.152;2024-03-08T14:56:51;9.30;91.30
947;DHT22;460;48.734;9.152;2024-03-08T14:59:18;9.20;91.30
947;DHT22;460;48.734;9.152;2024-03-08T15:01:45;9.20;91.60
947;DHT22;460;48.734;9.152;2024-03-08T15:04:13;9.70;91.50
947;DHT22;460;48.734;9.152;2024-03-08T15:06:41;10.90;91.40
947;DHT22;460;48.734;9.152;2024-03-08T15:09:11;12.40;89.70
947;DHT22;460;48.734;9.152;2024-03-08T15:11:45;13.50;85.30
947;DHT22;460;48.734;9.152;2024-03-08T15:14:12;14.40;81.00
947;DHT22;460;48.734;9.152;2024-03-08T15:16:39;14.60;80.40
947;DHT22;460;48.734;9.152;2024-03-08T15:19:06;14.40;77.20
947;DHT22;460;48.734;9.152;2024-03-08T15:21:35;14.30;78.20
947;DHT22;460;48.734;9.152;2024-03-08T15:24:02;14.20;77.70
947;DHT22;460;48.734;9.152;2024-03-08T15:26:29;14.60;76.50
947;DHT22;460;48.734;9.152;2024-03-08T15:28:57;14.90;77.00
947;DHT22;460;48.734;9.152;2024-03-08T15:31:23;14.90;73.00
947;DHT22;460;48.734;9.152;2024-03-08T15:33:52;14.90;74.80
947;DHT22;460;48.734;9.152;2024-03-08T15:36:26;15.00;74.30
947;DHT22;460;48.734;9.152;2024-03-08T15:38:57;15.80;83.50
947;DHT22;460;48.734;9.152;2024-03-08T15:41:24;15.50;75.20
947;DHT22;460;48.734;9.152;2024-03-08T15:43:52;15.80;73.40
947;DHT22;460;48.734;9.152;2024-03-08T15:46:20;15.70;72.20
947;DHT22;460;48.734;9.152;2024-03-08T15:48:48;15.70;71.70
947;DHT22;460;48.734;9.152;2024-03-08T15:51:16;15.40;69.40
947;DHT22;460;48.734;9.152;2024-03-08T15:56:19;13.80;70.40
947;DHT22;460;48.734;9.152;2024-03-08T15:58:46;13.30;71.90
947;DHT22;460;48.734;9.152;2024-03-08T16:01:13;12.80;72.60
947;DHT22;460;48.734;9.152;2024-03-08T16:03:42;12.50;73.50
947;DHT22;460;48.734;9.152;2024-03-08T16:06:10;12.00;74.70
947;DHT22;460;48.734;9.152;2024-03-08T16:08:37;11.70;75.50
947;DHT22;460;48.734;9.152;2024-03-08T16:11:05;11.40;76.60
947;DHT22;460;48.734;9.152;2024-03-08T16:13:34;11.00;77.50
947;DHT22;460;48.734;9.152;2024-03-08T16:16:04;10.80;78.90
947;DHT22;460;48.734;9.152;2024-03-08T16:18:31;10.70;79.30
947;DHT22;460;48.734;9.152;2024-03-08T16:21:00;10.40;79.80
947;DHT22;460;48.734;9.152;2024-03-08T16:23:28;10.30;80.50
947;DHT22;460;48.734;9.152;2024-03-08T16:25:56;10.00;81.20
947;DHT22;460;48.734;9.152;2024-03-08T16:28:23;9.90;83.20
947;DHT22;460;48.734;9.152;2024-03-08T16:30:55;9.80;83.60
947;DHT22;460;48.734;9.152;2024-03-08T16:33:22;9.70;84.20
947;DHT22;460;48.734;9.152;2024-03-08T16:35:49;9.50;84.90
947;DHT22;460;48.734;9.152;2024-03-08T16:38:17;9.40;85.10
947;DHT22;460;48.734;9.152;2024-03-08T16:40:45;9.40;85.40
947;DHT22;460;48.734;9.152;2024-03-08T16:43:12;9.30;85.80
947;DHT22;460;48.734;9.152;2024-03-08T16:45:40;9.30;86.10
947;DHT22;460;48.734;9.152;2024-03-08T16:48:09;9.20;85.90
947;DHT22;460;48.734;9.152;2024-03-08T16:50:36;9.00;86.30
947;DHT22;460;48.734;9.152;2024-03-08T16:53:03;9.00;86.30
947;DHT22;460;48.734;9.152;2024-03-08T16:55:30;8.80;86.90
947;DHT22;460;48.734;9.152;2024-03-08T16:57:59;8.80;87.30
947;DHT22;460;48.734;9.152;2024-03-08T17:00:26;8.70;87.20
947;DHT22;460;48.734;9.152;2024-03-08T17:02:54;8.70;87.50
947;DHT22;460;48.734;9.152;2024-03-08T17:05:22;8.60;87.70